createdAt,value
2022-11-07T00:04:49.019Z,1005.33
2022-11-07T00:11:11.988Z,1005.33
2022-11-07T00:17:32.084Z,1005.29
2022-11-07T00:23:54.995Z,1005.29
2022-11-07T00:30:14.980Z,1005.33
2022-11-07T00:36:38.019Z,1005.38
2022-11-07T00:42:58.976Z,1005.49
2022-11-07T00:49:21.984Z,1005.55
2022-11-07T00:55:42.016Z,1005.59
2022-11-07T01:02:05.037Z,1005.63
2022-11-07T01:08:24.995Z,1005.63
2022-11-07T01:14:48.013Z,1005.69
2022-11-07T01:21:10.930Z,1005.65
2022-11-07T01:27:30.981Z,1005.63
2022-11-07T01:33:50.995Z,1005.67
2022-11-07T01:40:14.005Z,1005.72
2022-11-07T01:46:33.966Z,1005.76
2022-11-07T01:52:57.094Z,1005.76
2022-11-07T01:59:16.984Z,1005.76
2022-11-07T02:05:40.008Z,1005.69
2022-11-07T02:11:59.994Z,1005.67
2022-11-07T02:18:22.978Z,1005.63
2022-11-07T02:24:42.985Z,1005.63
2022-11-07T02:31:06.026Z,1005.59
2022-11-07T02:37:26.001Z,1005.57
2022-11-07T02:43:48.974Z,1005.57
2022-11-07T02:50:08.998Z,1005.55
2022-11-07T02:56:31.985Z,1005.57
2022-11-07T03:02:52.106Z,1005.55
2022-11-07T03:09:15.016Z,1005.51
2022-11-07T03:15:34.974Z,1005.4
2022-11-07T03:21:58.000Z,1005.49
2022-11-07T03:28:18.002Z,1005.51
2022-11-07T03:34:40.967Z,1005.61
2022-11-07T03:41:00.993Z,1005.65
2022-11-07T03:47:24.089Z,1005.65
2022-11-07T03:53:43.984Z,1005.69
2022-11-07T04:00:07.033Z,1005.71
2022-11-07T04:06:26.996Z,1005.72
2022-11-07T04:12:49.996Z,1005.76
2022-11-07T04:19:09.973Z,1005.8
2022-11-07T04:25:33.007Z,1005.86
2022-11-07T04:31:52.981Z,1005.94
2022-11-07T04:48:03.975Z,1005.9
2022-11-07T04:54:23.973Z,1005.9
2022-11-07T05:00:47.031Z,1005.86
2022-11-07T05:07:06.991Z,1005.9
2022-11-07T05:13:29.976Z,1005.9
2022-11-07T05:19:49.974Z,1005.92
2022-11-07T05:26:13.014Z,1005.96
2022-11-07T05:32:32.977Z,1005.94
2022-11-07T05:38:55.979Z,1005.98
2022-11-07T05:45:16.016Z,1005.98
2022-11-07T05:51:38.972Z,1006.02
2022-11-07T05:58:01.832Z,1006.06
2022-11-07T06:04:22.092Z,1006.14
2022-11-07T06:10:41.987Z,1006.16
2022-11-07T06:17:04.967Z,1006.18
2022-11-07T06:23:25.021Z,1006.21
2022-11-07T06:29:47.975Z,1006.27
2022-11-07T06:36:07.974Z,1006.29
2022-11-07T06:42:31.175Z,1006.31
2022-11-07T06:48:50.996Z,1006.35
2022-11-07T06:55:14.005Z,1006.39
2022-11-07T07:01:34.177Z,1006.45
2022-11-07T07:07:57.004Z,1006.49
2022-11-07T07:14:17.014Z,1006.57
2022-11-07T07:20:40.111Z,1006.63
2022-11-07T07:26:59.989Z,1006.66
2022-11-07T07:33:22.992Z,1006.68
2022-11-07T07:39:43.119Z,1006.72
2022-11-07T07:46:06.010Z,1006.78
2022-11-07T07:52:25.988Z,1006.8
2022-11-07T07:58:49.140Z,1006.86
2022-11-07T08:05:08.989Z,1006.88
2022-11-07T08:11:32.016Z,1006.9
2022-11-07T08:17:52.114Z,1006.94
2022-11-07T08:24:14.991Z,1006.96
2022-11-07T08:30:34.998Z,1006.98
2022-11-07T08:36:58.015Z,1006.96
2022-11-07T08:43:18.369Z,1006.98
2022-11-07T08:49:40.992Z,1007
2022-11-07T08:56:01.001Z,1007.06
2022-11-07T09:03:08.715Z,1007.06
2022-11-07T09:08:43.984Z,1007.08
2022-11-07T09:15:07.017Z,1007.13
2022-11-07T09:21:26.991Z,1007.13
2022-11-07T09:27:50.008Z,1007.17
2022-11-07T09:34:10.028Z,1007.19
2022-11-07T09:40:32.984Z,1007.25
2022-11-07T09:46:52.973Z,1007.27
2022-11-07T09:53:16.327Z,1007.27
2022-11-07T09:59:35.989Z,1007.35
2022-11-07T10:23:00.004Z,1007.56
2022-11-07T10:29:23.006Z,1007.62
2022-11-07T10:35:42.983Z,1007.64
2022-11-07T10:42:06.008Z,1007.58
2022-11-07T10:48:26.309Z,1007.58
2022-11-07T10:54:48.983Z,1007.54
2022-11-07T11:01:09.083Z,1007.45
2022-11-07T11:07:31.985Z,1007.33
2022-11-07T11:13:51.979Z,1007.25
2022-11-07T11:20:15.020Z,1007.23
2022-11-07T11:26:34.978Z,1007.25
2022-11-07T11:32:58.056Z,1007.21
2022-11-07T11:39:18.055Z,1007.19
2022-11-07T11:45:40.981Z,1007.19
2022-11-07T11:52:00.992Z,1007.21
2022-11-07T11:58:24.006Z,1007.21
2022-11-07T12:04:43.980Z,1007.17
2022-11-07T12:11:07.018Z,1007.19
2022-11-07T12:17:27.038Z,1007.13
2022-11-07T12:23:49.996Z,1007.15
2022-11-07T12:30:09.994Z,1007.15
2022-11-07T12:36:33.050Z,1007.13
2022-11-07T12:42:57.284Z,1007.15
2022-11-07T12:49:15.987Z,1007.15
2022-11-07T12:55:36.027Z,1007.13
2022-11-07T13:01:59.075Z,1007.04
2022-11-07T13:08:19.003Z,1007.02
2022-11-07T13:14:42.011Z,1007.02
2022-11-07T13:21:01.974Z,1007.04
2022-11-07T13:27:24.998Z,1007.04
2022-11-07T13:33:45.027Z,1007.04
2022-11-07T13:40:08.336Z,1007.04
2022-11-07T13:46:28.220Z,1007.04
2022-11-07T13:52:51.060Z,1007.02
2022-11-07T13:59:11.000Z,1007.02
2022-11-07T14:05:33.976Z,1007.02
2022-11-07T14:11:54.003Z,1007.06
2022-11-07T14:18:17.524Z,1007.08
2022-11-07T14:24:37.188Z,1007.17
2022-11-07T14:31:00.011Z,1007.21
2022-11-07T14:37:19.983Z,1007.19
2022-11-07T14:43:43.009Z,1007.21
2022-11-07T14:50:03.132Z,1007.21
2022-11-07T14:56:26.001Z,1007.23
2022-11-07T15:02:46.075Z,1007.23
2022-11-07T15:09:08.999Z,1007.23
2022-11-07T15:15:29.217Z,1007.15
2022-11-07T15:21:52.271Z,1007.15
2022-11-07T15:45:10.005Z,1007.19
2022-11-07T15:51:29.979Z,1007.25
2022-11-07T15:57:52.995Z,1007.25
2022-11-07T16:04:13.106Z,1007.29
2022-11-07T16:10:36.034Z,1007.31
2022-11-07T16:16:55.973Z,1007.33
2022-11-07T16:23:19.004Z,1007.35
2022-11-07T16:29:38.973Z,1007.41
2022-11-07T16:36:01.988Z,1007.51
2022-11-07T16:42:22.014Z,1007.52
2022-11-07T16:48:45.124Z,1007.56
2022-11-07T16:55:04.987Z,1007.58
2022-11-07T17:01:28.146Z,1007.62
2022-11-07T17:07:47.972Z,1007.66
2022-11-07T17:14:11.307Z,1007.66
2022-11-07T17:20:55.024Z,1007.6
2022-11-07T17:26:53.991Z,1007.6
2022-11-07T17:33:13.973Z,1007.62
2022-11-07T17:39:37.021Z,1007.6
2022-11-07T17:45:56.974Z,1007.62
2022-11-07T17:52:19.972Z,1007.58
2022-11-07T17:58:40.017Z,1007.6
2022-11-07T18:05:02.974Z,1007.64
2022-11-07T18:11:22.983Z,1007.68
2022-11-07T18:17:46.020Z,1007.78
2022-11-07T18:24:05.991Z,1007.78
2022-11-07T18:30:29.008Z,1007.78
2022-11-07T18:36:48.981Z,1007.78
2022-11-07T18:43:12.142Z,1007.8
2022-11-07T18:49:31.971Z,1007.78
2022-11-07T18:55:54.994Z,1007.76
2022-11-07T19:02:15.057Z,1007.78
2022-11-07T19:08:37.978Z,1007.8
2022-11-07T19:14:57.995Z,1007.84
2022-11-07T19:21:20.994Z,1007.78
2022-11-07T19:27:40.970Z,1007.8
2022-11-07T19:34:04.009Z,1007.78
2022-11-07T19:40:23.972Z,1007.78
2022-11-07T19:46:46.967Z,1007.8
2022-11-07T19:53:06.997Z,1007.8
2022-11-07T19:59:29.986Z,1007.78
2022-11-07T20:05:49.975Z,1007.8
2022-11-07T20:12:13.027Z,1007.72
2022-11-07T20:18:32.978Z,1007.76
2022-11-07T20:24:55.981Z,1007.76
2022-11-07T20:31:15.992Z,1007.78
2022-11-07T20:37:39.012Z,1007.82
2022-11-07T20:43:58.980Z,1007.82
2022-11-07T20:50:22.011Z,1007.88
2022-11-07T21:15:05.007Z,1007.86
2022-11-07T21:21:27.968Z,1007.86
2022-11-07T21:27:48.006Z,1007.84
2022-11-07T21:34:10.999Z,1007.78
2022-11-07T21:40:31.001Z,1007.78
2022-11-07T21:46:53.987Z,1007.8
2022-11-07T21:53:14.080Z,1007.78
2022-11-07T21:59:37.014Z,1007.76
2022-11-07T22:05:57.011Z,1007.7
2022-11-07T22:12:20.155Z,1007.66
2022-11-07T22:18:40.012Z,1007.58
2022-11-07T22:25:02.984Z,1007.51
2022-11-07T22:31:23.045Z,1007.49
2022-11-07T22:37:45.974Z,1007.47
2022-11-07T22:44:05.992Z,1007.43
2022-11-07T22:50:29.005Z,1007.43
2022-11-07T22:56:48.984Z,1007.43
2022-11-07T23:19:45.989Z,1007.37
2022-11-07T23:26:05.971Z,1007.37
2022-11-07T23:32:28.983Z,1007.33
2022-11-07T23:38:49.144Z,1007.35
2022-11-07T23:45:11.998Z,1007.31
2022-11-07T23:51:32.002Z,1007.25
2022-11-07T23:57:55.035Z,1007.27
